Time;durP1;ratioP1;P1;durP2;ratioP2;P2;SDS_P1;SDS_P2;PMS_P1;PMS_P2;Temp;Humidity;BMP_temperature;BMP_pressure;BME280_temperature;BME280_humidity;BME280_pressure;Samples;Min_cycle;Max_cycle;Signal;HPM_P1;HPM_P2
2024/01/17 00:00:44;;;;;;;17.98;12.35;;;;;;;0.81;62.56;100155.50;5008403;28;20125;-62
2024/01/17 00:03:09;;;;;;;18.85;11.95;;;;;;;0.83;62.34;100150.69;5007656;28;20113;-62
2024/01/17 00:05:35;;;;;;;17.88;11.63;;;;;;;0.83;62.97;100147.94;5007561;28;20137;-62
2024/01/17 00:08:00;;;;;;;16.50;11.75;;;;;;;0.86;62.48;100144.78;5007538;28;20030;-62
2024/01/17 00:10:26;;;;;;;15.27;11.50;;;;;;;0.80;62.22;100142.91;5015489;28;20585;-62
2024/01/17 00:12:51;;;;;;;17.15;11.65;;;;;;;0.78;62.61;100144.97;5005947;28;20457;-62
2024/01/17 00:15:18;;;;;;;16.65;11.40;;;;;;;0.73;62.22;100138.25;4993760;28;20639;-62
2024/01/17 00:17:43;;;;;;;16.08;11.68;;;;;;;0.71;62.64;100126.69;4989057;28;20034;-62
2024/01/17 00:20:09;;;;;;;16.17;10.90;;;;;;;0.73;62.58;100123.75;4987828;28;20019;-62
2024/01/17 00:22:34;;;;;;;16.88;11.50;;;;;;;0.70;62.65;100113.22;5007879;28;20029;-63
2024/01/17 00:25:00;;;;;;;16.83;11.48;;;;;;;0.67;62.46;100098.13;4992350;28;20037;-61
2024/01/17 00:27:26;;;;;;;15.02;11.57;;;;;;;0.68;63.06;100102.53;4987790;28;20026;-61
2024/01/17 00:29:57;;;;;;;17.30;12.07;;;;;;;0.65;63.00;100093.91;5006347;28;20030;-61
2024/01/17 00:32:23;;;;;;;18.83;11.77;;;;;;;0.70;62.59;100088.66;5024539;28;20036;-62
2024/01/17 00:34:48;;;;;;;14.18;10.90;;;;;;;0.67;62.52;100080.91;5008454;28;20427;-62
2024/01/17 00:37:13;;;;;;;14.88;10.98;;;;;;;0.68;62.37;100085.31;5008108;28;20055;-61
2024/01/17 00:39:39;;;;;;;18.38;11.50;;;;;;;0.65;62.47;100081.09;5011280;28;20121;-61
2024/01/17 00:42:04;;;;;;;16.60;11.38;;;;;;;0.65;62.46;100072.88;5008017;28;20070;-61
2024/01/17 00:44:29;;;;;;;15.85;10.93;;;;;;;0.67;62.46;100064.50;5007321;28;20038;-62
2024/01/17 00:46:55;;;;;;;16.50;10.75;;;;;;;0.70;62.30;100059.44;5007448;28;20034;-62
2024/01/17 00:49:20;;;;;;;16.98;10.98;;;;;;;0.69;62.25;100063.22;5024015;28;20025;-62
2024/01/17 00:51:45;;;;;;;17.38;11.25;;;;;;;0.66;62.58;100049.97;5011970;28;20038;-62
2024/01/17 00:54:11;;;;;;;17.67;10.98;;;;;;;0.64;62.85;100054.81;5018973;28;20049;-62
2024/01/17 00:56:37;;;;;;;16.67;10.57;;;;;;;0.68;62.21;100041.59;5008545;28;20079;-62
2024/01/17 00:59:03;;;;;;;15.18;10.90;;;;;;;0.69;61.97;100035.91;5004556;28;20030;-63
2024/01/17 01:01:28;;;;;;;16.45;10.60;;;;;;;0.69;62.24;100030.44;5015063;28;20026;-62
2024/01/17 01:03:53;;;;;;;15.63;10.32;;;;;;;0.69;62.04;100022.25;5014793;28;20038;-61
2024/01/17 01:06:19;;;;;;;18.25;10.98;;;;;;;0.67;61.61;100026.28;5007898;28;20042;-61
2024/01/17 01:08:44;;;;;;;16.02;10.95;;;;;;;0.65;61.98;100023.72;5009599;28;20443;-62
2024/01/17 01:11:09;;;;;;;14.07;10.80;;;;;;;0.67;61.66;100015.34;5009570;28;20022;-62
2024/01/17 01:13:35;;;;;;;16.15;11.20;;;;;;;0.65;62.64;100028.34;5037045;28;20089;-64
2024/01/17 01:16:00;;;;;;;12.35;9.88;;;;;;;0.66;62.39;100022.66;5006084;28;20029;-62
2024/01/17 01:18:25;;;;;;;16.27;11.05;;;;;;;0.61;61.99;100018.91;5010985;28;20079;-62
2024/01/17 01:20:50;;;;;;;13.65;9.70;;;;;;;0.61;62.07;100010.72;5010941;28;20361;-62
2024/01/17 01:23:16;;;;;;;16.77;10.68;;;;;;;0.62;61.70;100009.66;5010188;28;20034;-62
2024/01/17 01:25:41;;;;;;;13.50;10.30;;;;;;;0.57;62.13;100004.81;5011449;28;20576;-61
2024/01/17 01:28:06;;;;;;;18.77;11.07;;;;;;;0.52;62.06;100003.78;5022146;28;20045;-62
2024/01/17 01:30:31;;;;;;;16.45;10.30;;;;;;;0.52;61.91;99995.59;5010152;28;20095;-62
2024/01/17 01:32:57;;;;;;;14.00;10.35;;;;;;;0.52;62.15;99998.31;5006274;28;20554;-62
2024/01/17 01:35:22;;;;;;;14.10;9.35;;;;;;;0.44;61.91;99996.63;5005279;28;20065;-62
2024/01/17 01:37:47;;;;;;;15.35;10.23;;;;;;;0.44;62.09;100000.19;5010787;28;20033;-62
2024/01/17 01:40:13;;;;;;;13.60;9.90;;;;;;;0.49;62.13;100002.28;5009192;28;20051;-62
2024/01/17 01:42:42;;;;;;;12.98;9.68;;;;;;;0.44;62.72;99999.34;5009043;28;20074;-62
2024/01/17 01:45:08;;;;;;;11.52;9.32;;;;;;;0.46;62.39;99991.78;5010569;28;20044;-62
2024/01/17 01:47:34;;;;;;;13.43;10.10;;;;;;;0.46;61.78;99998.06;5009864;28;20037;-61
2024/01/17 01:49:59;;;;;;;16.75;10.25;;;;;;;0.45;62.24;99993.69;5009308;28;20037;-61
2024/01/17 01:52:26;;;;;;;13.18;10.15;;;;;;;0.46;61.88;99998.06;5004616;28;20030;-61
2024/01/17 01:54:52;;;;;;;15.93;10.82;;;;;;;0.45;62.23;99995.56;5000356;28;20389;-61
2024/01/17 01:57:17;;;;;;;14.30;10.15;;;;;;;0.51;62.43;99992.00;5007756;28;20139;-62
2024/01/17 01:59:45;;;;;;;15.02;9.85;;;;;;;0.48;62.39;99984.25;5010576;28;20457;-62
2024/01/17 02:02:11;;;;;;;13.25;9.75;;;;;;;0.46;62.32;99975.41;5010210;28;20067;-61
2024/01/17 02:04:36;;;;;;;14.15;10.45;;;;;;;0.47;62.26;99982.53;5009053;28;20362;-62
2024/01/17 02:07:02;;;;;;;14.93;9.63;;;;;;;0.42;62.40;99985.91;5009818;28;20061;-61
2024/01/17 02:09:28;;;;;;;14.27;10.10;;;;;;;0.41;62.21;99973.31;5014067;28;20041;-61
2024/01/17 02:11:54;;;;;;;16.33;10.32;;;;;;;0.41;62.30;99972.47;5027044;28;20052;-62
2024/01/17 02:14:20;;;;;;;14.60;9.88;;;;;;;0.41;62.30;99972.47;5008422;28;20480;-62
2024/01/17 02:16:46;;;;;;;13.88;9.80;;;;;;;0.41;62.12;99959.66;5011393;28;20033;-61
2024/01/17 02:19:15;;;;;;;17.52;10.68;;;;;;;0.40;62.32;99960.72;5009211;28;20036;-61
2024/01/17 02:21:41;;;;;;;14.93;10.40;;;;;;;0.41;62.65;99956.09;5009599;28;20034;-61
2024/01/17 02:24:28;;;;;;;15.30;10.48;;;;;;;0.42;63.09;99955.03;5020071;28;20075;-61
2024/01/17 02:26:54;;;;;;;17.55;9.70;;;;;;;0.40;61.81;99951.69;5014461;28;20026;-61
2024/01/17 02:29:19;;;;;;;13.95;10.63;;;;;;;0.41;61.40;99945.16;5013979;28;20812;-62
2024/01/17 02:31:45;;;;;;;11.93;9.20;;;;;;;0.44;62.37;99923.75;5058129;28;20530;-61
2024/01/17 02:34:10;;;;;;;19.88;10.80;;;;;;;0.44;62.48;99933.84;5009247;28;20051;-61
2024/01/17 02:36:36;;;;;;;12.43;9.57;;;;;;;0.43;62.21;99922.06;5009593;28;20026;-62
2024/01/17 02:39:01;;;;;;;17.77;10.80;;;;;;;0.43;61.77;99910.28;5008868;28;20054;-61
2024/01/17 02:41:26;;;;;;;14.75;9.18;;;;;;;0.41;62.52;99912.41;5005548;28;20030;-62
2024/01/17 02:43:52;;;;;;;14.10;10.20;;;;;;;0.40;62.67;99897.91;4998977;28;20122;-62
2024/01/17 02:46:17;;;;;;;12.82;9.27;;;;;;;0.41;61.98;99894.13;5005131;28;20030;-62
2024/01/17 02:48:42;;;;;;;12.82;9.82;;;;;;;0.40;62.32;99887.00;5005004;28;20462;-62
2024/01/17 02:51:08;;;;;;;14.52;10.00;;;;;;;0.37;61.88;99892.03;5015084;28;20074;-62
2024/01/17 02:53:33;;;;;;;16.70;10.73;;;;;;;0.33;62.22;99882.59;5018153;28;20079;-63
2024/01/17 02:55:58;;;;;;;14.88;9.93;;;;;;;0.31;62.12;99890.13;5009097;28;20034;-62
2024/01/17 02:58:24;;;;;;;14.57;9.63;;;;;;;0.32;61.90;99875.47;5009304;28;20026;-62
2024/01/17 03:00:49;;;;;;;13.52;9.57;;;;;;;0.28;62.07;99868.75;5011344;28;20366;-61
2024/01/17 03:03:15;;;;;;;12.23;9.82;;;;;;;0.29;62.10;99867.69;5009523;28;20037;-62
2024/01/17 03:05:40;;;;;;;16.42;10.18;;;;;;;0.29;62.07;99854.03;5023593;28;20036;-61
2024/01/17 03:08:06;;;;;;;12.40;10.13;;;;;;;0.30;62.31;99856.53;5002662;28;20060;-62
2024/01/17 03:10:31;;;;;;;13.82;9.75;;;;;;;0.27;62.35;99850.66;5018430;28;20577;-62
2024/01/17 03:12:57;;;;;;;13.73;9.60;;;;;;;0.30;62.06;99864.75;5099668;28;20020;-62
2024/01/17 03:15:23;;;;;;;15.75;9.43;;;;;;;0.26;62.20;99854.47;5004215;28;20132;-62
2024/01/17 03:17:49;;;;;;;11.57;9.23;;;;;;;0.27;62.47;99856.97;5009189;28;20124;-62
2024/01/17 03:20:14;;;;;;;12.15;9.82;;;;;;;0.22;62.17;99859.50;5008669;28;20025;-61
2024/01/17 03:22:40;;;;;;;15.57;10.20;;;;;;;0.21;62.58;99847.75;5025123;28;20036;-61
2024/01/17 03:25:06;;;;;;;13.98;10.05;;;;;;;0.24;62.47;99847.31;5016822;28;20033;-62
2024/01/17 03:27:31;;;;;;;15.38;9.80;;;;;;;0.22;62.36;99849.41;5029037;28;20036;-62
2024/01/17 03:29:56;;;;;;;13.32;9.60;;;;;;;0.21;62.14;99842.28;5008471;28;20104;-61
2024/01/17 03:32:21;;;;;;;12.95;9.00;;;;;;;0.20;62.51;99846.06;5007927;28;20029;-62
2024/01/17 03:34:47;;;;;;;13.60;10.00;;;;;;;0.20;62.44;99818.78;5014242;28;20079;-62
2024/01/17 03:37:12;;;;;;;16.20;9.90;;;;;;;0.19;62.09;99817.06;5023525;28;20076;-61
2024/01/17 03:39:42;;;;;;;12.63;9.93;;;;;;;0.18;62.26;99811.84;5007670;28;20033;-61
2024/01/17 03:42:07;;;;;;;11.80;9.13;;;;;;;0.17;62.19;99799.25;5008062;28;20262;-61
2024/01/17 03:44:32;;;;;;;13.98;9.32;;;;;;;0.16;62.52;99798.44;5006616;28;20048;-62
2024/01/17 03:46:58;;;;;;;13.25;9.75;;;;;;;0.17;62.83;99786.44;5007670;28;20116;-61
2024/01/17 03:49:23;;;;;;;12.90;9.77;;;;;;;0.19;62.15;99773.41;5007608;28;20060;-61
2024/01/17 03:51:48;;;;;;;14.82;10.25;;;;;;;0.17;62.57;99766.50;5008297;28;20059;-61
2024/01/17 03:54:14;;;;;;;14.60;9.85;;;;;;;0.16;62.34;99753.94;5022818;28;20038;-62
2024/01/17 03:56:39;;;;;;;15.30;10.85;;;;;;;0.16;62.65;99754.75;5023188;28;20026;-61
2024/01/17 03:59:05;;;;;;;13.25;9.30;;;;;;;0.20;62.10;99747.81;5008345;28;20034;-61
2024/01/17 04:01:31;;;;;;;14.70;9.68;;;;;;;0.17;62.11;99740.06;5018093;28;20030;-62
2024/01/17 04:03:56;;;;;;;13.77;9.13;;;;;;;0.18;62.20;99735.44;5007341;28;20147;-61
2024/01/17 04:06:22;;;;;;;12.75;10.20;;;;;;;0.19;62.71;99737.94;5040158;28;20041;-62
2024/01/17 04:08:48;;;;;;;14.82;9.82;;;;;;;0.15;62.49;99725.78;5008192;28;20110;-61
2024/01/17 04:11:13;;;;;;;11.50;10.02;;;;;;;0.14;61.89;99717.81;5007621;28;20503;-61
2024/01/17 04:13:41;;;;;;;13.15;9.98;;;;;;;0.14;62.58;99713.19;5018155;28;20813;-62
2024/01/17 04:16:07;;;;;;;14.35;10.05;;;;;;;0.13;62.83;99702.50;5004450;28;20033;-61
2024/01/17 04:18:32;;;;;;;14.52;9.85;;;;;;;0.14;62.21;99696.81;5007264;28;20444;-62
2024/01/17 04:20:58;;;;;;;18.13;10.07;;;;;;;0.09;62.53;99690.34;5008094;28;20037;-61
2024/01/17 04:23:23;;;;;;;17.60;9.25;;;;;;;0.10;62.40;99690.13;5007988;28;20040;-62
2024/01/17 04:25:49;;;;;;;17.38;9.55;;;;;;;0.11;62.85;99686.31;5011974;28;20114;-63
2024/01/17 04:28:17;;;;;;;13.98;9.48;;;;;;;0.13;62.58;99686.97;5011684;28;20386;-64
2024/01/17 04:30:43;;;;;;;16.38;9.50;;;;;;;0.13;62.92;99680.69;5008238;28;20030;-62
2024/01/17 04:33:09;;;;;;;12.88;8.60;;;;;;;0.10;62.46;99671.03;5007233;28;20030;-64
2024/01/17 04:35:35;;;;;;;12.70;8.98;;;;;;;0.11;62.38;99661.78;4998257;28;20034;-63
2024/01/17 04:38:00;;;;;;;12.93;9.00;;;;;;;0.10;62.35;99654.66;4997191;28;20484;-63
2024/01/17 04:40:26;;;;;;;13.80;9.35;;;;;;;0.10;62.92;99651.09;5007291;28;20028;-61
2024/01/17 04:42:51;;;;;;;14.68;8.75;;;;;;;0.11;62.67;99647.28;5010687;28;20049;-62
2024/01/17 04:45:19;;;;;;;13.05;8.60;;;;;;;0.10;62.33;99641.00;5016271;28;20714;-62
2024/01/17 04:47:44;;;;;;;13.82;9.25;;;;;;;0.12;62.44;99638.91;5020017;28;20113;-62
2024/01/17 04:50:12;;;;;;;12.48;8.48;;;;;;;0.12;62.54;99636.19;5011494;28;20114;-62
2024/01/17 04:52:38;;;;;;;15.25;9.48;;;;;;;0.11;62.72;99631.75;5019990;28;20033;-62
2024/01/17 04:55:04;;;;;;;13.00;9.18;;;;;;;0.07;62.48;99622.34;5021336;28;20422;-61
2024/01/17 04:57:30;;;;;;;10.82;8.70;;;;;;;0.08;62.66;99614.97;5013208;28;20030;-62
2024/01/17 04:59:55;;;;;;;13.75;9.40;;;;;;;0.07;62.32;99605.97;5015821;28;20022;-61
2024/01/17 05:02:20;;;;;;;14.65;9.13;;;;;;;0.05;62.19;99608.09;5010879;28;20034;-62
2024/01/17 05:04:45;;;;;;;12.68;9.85;;;;;;;0.05;61.99;99601.78;5023181;28;20057;-61
2024/01/17 05:07:11;;;;;;;15.55;9.95;;;;;;;0.04;62.26;99600.97;5014110;28;20040;-62
2024/01/17 05:09:37;;;;;;;13.68;9.32;;;;;;;0.08;62.58;99595.88;5031325;28;20465;-61
2024/01/17 05:12:03;;;;;;;15.18;9.52;;;;;;;0.06;62.38;99589.81;5016589;28;20393;-61
2024/01/17 05:14:28;;;;;;;12.18;9.00;;;;;;;0.03;62.30;99590.25;5010187;28;20036;-61
2024/01/17 05:16:54;;;;;;;14.23;9.90;;;;;;;0.07;62.96;99580.56;5031848;28;20028;-61
2024/01/17 05:19:19;;;;;;;14.07;9.60;;;;;;;0.06;62.56;99577.00;5015725;28;20026;-61
2024/01/17 05:21:44;;;;;;;14.93;8.95;;;;;;;0.05;62.62;99577.25;5015969;28;20027;-61
2024/01/17 05:24:10;;;;;;;13.50;9.57;;;;;;;0.06;62.24;99574.28;5021140;28;20034;-61
2024/01/17 05:26:35;;;;;;;15.00;9.43;;;;;;;0.06;62.67;99577.00;5010809;28;20025;-61
2024/01/17 05:29:00;;;;;;;12.60;9.27;;;;;;;0.06;62.82;99570.72;5018470;28;20472;-61
2024/01/17 05:31:26;;;;;;;12.30;8.52;;;;;;;0.06;62.94;99559.81;5010833;28;20041;-62
2024/01/17 05:33:51;;;;;;;15.25;9.23;;;;;;;0.04;62.88;99559.19;5009637;28;20032;-62
2024/01/17 05:36:16;;;;;;;11.52;9.25;;;;;;;0.03;63.45;99550.16;5010074;28;20030;-62
2024/01/17 05:38:41;;;;;;;12.20;8.82;;;;;;;0.05;63.39;99542.59;5008451;28;20392;-61
2024/01/17 05:41:07;;;;;;;12.82;9.07;;;;;;;0.04;62.98;99551.84;5050840;28;20034;-62
2024/01/17 05:43:32;;;;;;;15.38;9.63;;;;;;;0.04;62.71;99538.22;5008372;28;20064;-62
2024/01/17 05:45:57;;;;;;;10.98;8.88;;;;;;;0.02;62.93;99532.13;5016990;28;20045;-61
2024/01/17 05:48:26;;;;;;;13.60;9.43;;;;;;;-0.02;63.07;99533.63;5009779;28;20481;-62
2024/01/17 05:50:51;;;;;;;14.55;9.75;;;;;;;0.00;62.79;99528.78;5009287;28;20022;-61
2024/01/17 05:53:17;;;;;;;12.07;9.43;;;;;;;0.02;62.98;99529.41;5009583;28;20038;-61
2024/01/17 05:55:42;;;;;;;13.30;9.00;;;;;;;0.02;62.96;99523.94;5012603;28;20039;-62
2024/01/17 05:58:09;;;;;;;12.48;9.20;;;;;;;0.04;63.07;99524.56;5007100;28;20086;-62
2024/01/17 06:00:34;;;;;;;15.45;10.43;;;;;;;0.04;62.71;99530.03;5007230;28;20044;-61
2024/01/17 06:03:00;;;;;;;13.95;10.00;;;;;;;0.05;62.99;99528.13;5003333;28;20030;-61
2024/01/17 06:05:25;;;;;;;11.88;9.38;;;;;;;-0.03;62.93;99518.31;5003066;28;20064;-61
2024/01/17 06:07:51;;;;;;;16.20;10.05;;;;;;;0.02;62.54;99504.00;5012511;28;20022;-61
2024/01/17 06:10:17;;;;;;;11.93;9.02;;;;;;;0.00;62.96;99512.44;5009821;28;20030;-61
2024/01/17 06:12:42;;;;;;;14.65;9.60;;;;;;;0.01;62.44;99502.34;5010486;28;20029;-61
2024/01/17 06:15:17;;;;;;;14.60;10.27;;;;;;;0.01;62.65;99503.19;5010001;28;20499;-60
2024/01/17 06:17:43;;;;;;;18.20;10.23;;;;;;;0.04;62.74;99496.44;5009911;28;20034;-60
2024/01/17 06:20:09;;;;;;;15.10;10.65;;;;;;;0.03;62.62;99487.41;5010221;28;20400;-61
2024/01/17 06:22:35;;;;;;;14.13;10.30;;;;;;;0.02;62.62;99485.75;5005698;28;20025;-61
2024/01/17 06:25:00;;;;;;;15.35;10.27;;;;;;;-0.02;62.34;99482.63;5013484;28;20037;-60
2024/01/17 06:27:26;;;;;;;13.45;10.80;;;;;;;-0.01;62.70;99483.44;5019005;28;20037;-60
2024/01/17 06:29:51;;;;;;;12.88;10.48;;;;;;;-0.05;63.02;99477.59;5009439;28;20125;-60
2024/01/17 06:32:16;;;;;;;14.90;10.40;;;;;;;-0.04;62.63;99465.66;5009736;28;20022;-60
2024/01/17 06:34:43;;;;;;;14.35;10.57;;;;;;;-0.07;63.09;99477.00;5009669;28;20037;-60
2024/01/17 06:37:08;;;;;;;15.95;10.65;;;;;;;-0.04;63.06;99462.06;5061299;28;20477;-60
2024/01/17 06:39:34;;;;;;;13.48;10.85;;;;;;;0.00;62.72;99457.88;5006944;28;20058;-60
2024/01/17 06:42:00;;;;;;;15.75;10.32;;;;;;;-0.02;62.72;99459.97;5017663;28;20046;-61
2024/01/17 06:44:26;;;;;;;16.70;11.25;;;;;;;0.01;62.62;99458.72;5008859;28;20033;-61
2024/01/17 06:46:51;;;;;;;13.70;10.82;;;;;;;-0.03;62.52;99450.13;5008883;28;20096;-61
2024/01/17 06:49:16;;;;;;;14.57;10.27;;;;;;;-0.04;62.76;99452.00;5011380;28;20759;-61
2024/01/17 06:51:42;;;;;;;13.73;10.77;;;;;;;-0.03;62.82;99447.41;5016998;28;20063;-61
2024/01/17 06:54:09;;;;;;;15.18;10.98;;;;;;;0.01;62.48;99442.34;5007797;28;20087;-59
2024/01/17 06:56:35;;;;;;;15.27;11.55;;;;;;;0.00;63.01;99441.50;5006967;28;20061;-59
2024/01/17 06:59:00;;;;;;;18.88;11.27;;;;;;;-0.01;62.70;99448.00;5042189;28;20043;-61
2024/01/17 07:01:26;;;;;;;14.68;10.95;;;;;;;-0.02;62.68;99436.25;5005614;28;20091;-61
2024/01/17 07:03:52;;;;;;;14.48;11.25;;;;;;;0.00;62.78;99433.31;5004621;28;20086;-61
2024/01/17 07:06:17;;;;;;;13.80;10.70;;;;;;;-0.02;63.08;99417.16;4997515;28;20579;-61
2024/01/17 07:08:42;;;;;;;17.35;11.45;;;;;;;-0.02;63.19;99411.69;4993373;28;20036;-61
2024/01/17 07:11:12;;;;;;;14.93;11.23;;;;;;;-0.02;62.93;99413.59;5005130;28;20799;-61
2024/01/17 07:13:38;;;;;;;15.68;10.68;;;;;;;-0.01;63.25;99405.19;5005515;28;20038;-64
2024/01/17 07:16:07;;;;;;;15.82;11.25;;;;;;;-0.03;63.30;99407.31;5003777;28;20041;-62
2024/01/17 07:18:33;;;;;;;14.75;12.18;;;;;;;0.01;63.10;99393.25;5002678;28;20173;-62
2024/01/17 07:21:04;;;;;;;13.55;9.75;;;;;;;-0.01;63.64;99398.91;4993739;28;20026;-63
2024/01/17 07:23:29;;;;;;;17.38;11.45;;;;;;;-0.04;62.91;99394.75;4999629;28;20040;-62
2024/01/17 07:25:54;;;;;;;14.32;11.15;;;;;;;-0.01;63.29;99386.09;4995464;28;20037;-63
2024/01/17 07:28:20;;;;;;;14.00;10.48;;;;;;;-0.01;63.53;99387.97;4998135;28;20045;-62
2024/01/17 07:30:45;;;;;;;12.82;10.40;;;;;;;0.01;63.33;99372.25;4997768;28;20029;-62
2024/01/17 07:33:10;;;;;;;14.32;11.05;;;;;;;0.02;62.72;99363.00;4994422;28;20171;-63
2024/01/17 07:35:35;;;;;;;15.30;10.38;;;;;;;-0.01;62.88;99360.72;4999547;28;20048;-62
2024/01/17 07:38:02;;;;;;;15.82;10.20;;;;;;;-0.01;62.73;99361.53;4994960;28;20030;-62
2024/01/17 07:40:28;;;;;;;13.32;10.05;;;;;;;0.01;62.48;99353.16;4996575;28;20041;-61
2024/01/17 07:42:53;;;;;;;15.55;10.60;;;;;;;0.02;62.46;99351.25;5009053;28;20042;-62
2024/01/17 07:45:19;;;;;;;16.70;10.43;;;;;;;0.02;62.42;99341.19;5007699;28;20084;-62
2024/01/17 07:47:45;;;;;;;13.50;9.88;;;;;;;0.01;62.51;99336.78;4998095;28;20029;-62
2024/01/17 07:50:11;;;;;;;14.32;9.80;;;;;;;0.00;62.19;99332.41;5009116;28;20106;-61
2024/01/17 07:52:38;;;;;;;13.30;9.75;;;;;;;0.01;62.58;99323.16;5017348;28;20480;-63
2024/01/17 07:55:04;;;;;;;15.77;10.75;;;;;;;0.02;62.77;99324.81;5008099;28;20046;-61
2024/01/17 07:57:29;;;;;;;15.07;9.98;;;;;;;0.03;62.62;99317.47;5005497;28;20061;-62
2024/01/17 07:59:55;;;;;;;18.08;11.60;;;;;;;0.03;62.39;99314.72;5005602;28;20461;-60
2024/01/17 08:02:20;;;;;;;21.25;12.85;;;;;;;0.01;62.23;99308.69;5000003;28;20057;-61
2024/01/17 08:04:46;;;;;;;19.27;12.48;;;;;;;0.00;62.19;99305.13;4988257;28;20031;-61
2024/01/17 08:07:12;;;;;;;22.73;11.55;;;;;;;0.03;62.23;99303.81;5000522;28;20036;-60
2024/01/17 08:09:37;;;;;;;14.70;11.23;;;;;;;0.05;62.29;99296.25;5007871;28;20032;-60
2024/01/17 08:12:03;;;;;;;15.48;9.77;;;;;;;0.06;62.00;99292.47;5007420;28;20030;-61
2024/01/17 08:14:28;;;;;;;16.38;10.90;;;;;;;0.03;62.44;99288.28;5009094;28;20079;-60
2024/01/17 08:16:54;;;;;;;14.52;10.13;;;;;;;0.07;62.71;99296.84;5012398;28;20030;-61
2024/01/17 08:19:19;;;;;;;14.52;10.20;;;;;;;0.08;62.19;99293.94;5013003;28;20028;-60
2024/01/17 08:21:46;;;;;;;14.07;10.73;;;;;;;0.08;62.72;99291.19;5027051;28;20029;-60
2024/01/17 08:24:12;;;;;;;17.58;11.20;;;;;;;0.11;62.57;99287.16;5007306;28;20038;-60
2024/01/17 08:26:41;;;;;;;15.57;11.13;;;;;;;0.21;63.66;99285.59;5013220;28;20030;-60
2024/01/17 08:29:06;;;;;;;14.90;10.43;;;;;;;0.26;62.92;99281.38;5008769;28;20053;-61
2024/01/17 08:31:31;;;;;;;15.48;11.43;;;;;;;0.26;63.20;99267.72;5009231;28;20076;-60
2024/01/17 08:33:57;;;;;;;13.65;10.73;;;;;;;0.27;62.85;99266.66;5016277;28;20557;-59
2024/01/17 08:36:27;;;;;;;15.98;11.68;;;;;;;0.26;62.87;99271.28;5005871;28;20481;-59
2024/01/17 08:38:53;;;;;;;16.25;12.07;;;;;;;0.23;63.16;99269.84;5007134;28;20389;-60
2024/01/17 08:41:19;;;;;;;17.73;11.70;;;;;;;0.23;62.83;99260.81;5060996;28;20475;-60
2024/01/17 08:43:45;;;;;;;15.40;11.32;;;;;;;0.22;62.41;99248.25;5008116;28;20054;-59
2024/01/17 08:46:11;;;;;;;19.85;12.48;;;;;;;0.22;62.77;99251.81;5007588;28;20045;-60
2024/01/17 08:48:37;;;;;;;14.98;10.82;;;;;;;0.22;62.88;99249.06;5014500;28;20021;-60
2024/01/17 08:51:03;;;;;;;14.95;11.13;;;;;;;0.23;62.79;99239.00;5007052;28;20030;-60
2024/01/17 08:53:31;;;;;;;17.02;11.25;;;;;;;0.23;62.66;99231.63;5007070;28;20052;-60
2024/01/17 08:55:57;;;;;;;15.10;10.68;;;;;;;0.24;62.36;99236.06;5006133;28;20073;-60
2024/01/17 08:58:22;;;;;;;18.90;11.63;;;;;;;0.23;62.75;99225.34;5007375;28;20117;-60
2024/01/17 09:00:47;;;;;;;15.65;10.13;;;;;;;0.25;61.93;99220.50;4994382;28;20026;-59
2024/01/17 09:03:13;;;;;;;15.25;10.30;;;;;;;0.28;61.89;99213.78;5007774;28;20098;-60
2024/01/17 09:05:38;;;;;;;15.25;11.18;;;;;;;0.28;61.97;99208.31;4988618;28;20494;-59
2024/01/17 09:08:04;;;;;;;16.45;10.80;;;;;;;0.27;62.29;99206.63;5017002;28;20064;-60
2024/01/17 09:10:29;;;;;;;15.57;11.05;;;;;;;0.30;62.18;99206.19;5026718;28;20097;-60
2024/01/17 09:12:55;;;;;;;16.55;10.93;;;;;;;0.29;62.13;99208.09;5018191;28;20037;-59
2024/01/17 09:15:20;;;;;;;15.93;11.15;;;;;;;0.31;61.74;99199.66;5007352;28;20034;-58
2024/01/17 09:17:46;;;;;;;15.15;10.85;;;;;;;0.30;62.08;99190.63;5006373;28;20090;-60
2024/01/17 09:20:11;;;;;;;14.43;10.93;;;;;;;0.31;61.68;99195.03;5019879;28;20136;-60
2024/01/17 09:22:36;;;;;;;13.70;11.27;;;;;;;0.29;62.16;99193.59;5027064;28;20056;-60
2024/01/17 09:25:02;;;;;;;15.82;10.40;;;;;;;0.31;62.03;99188.75;5013584;28;20100;-60
2024/01/17 09:27:28;;;;;;;14.98;11.05;;;;;;;0.31;62.08;99196.94;5004101;28;20071;-60
2024/01/17 09:29:54;;;;;;;18.38;10.52;;;;;;;0.31;61.85;99186.00;5030153;28;20044;-61
2024/01/17 09:32:19;;;;;;;14.80;11.52;;;;;;;0.33;61.49;99183.91;5029791;28;20018;-60
2024/01/17 09:34:47;;;;;;;15.48;10.65;;;;;;;0.35;61.99;99176.31;5020191;28;20027;-60
2024/01/17 09:37:13;;;;;;;17.45;12.07;;;;;;;0.36;62.02;99180.72;5007075;28;20037;-60
2024/01/17 09:39:38;;;;;;;18.38;12.38;;;;;;;0.36;62.37;99178.81;5015930;28;20025;-60
2024/01/17 09:42:06;;;;;;;17.33;11.85;;;;;;;0.37;62.61;99185.13;5029432;28;20377;-60
2024/01/17 09:44:31;;;;;;;19.27;12.15;;;;;;;0.36;62.89;99180.72;5027905;28;20025;-60
2024/01/17 09:47:00;;;;;;;15.73;12.15;;;;;;;0.37;62.50;99179.66;5029330;28;20032;-60
2024/01/17 09:49:27;;;;;;;15.88;11.63;;;;;;;0.38;61.99;99176.69;5029236;28;20109;-60
2024/01/17 09:51:53;;;;;;;16.52;12.52;;;;;;;0.43;62.87;99178.72;5029574;28;20031;-60
2024/01/17 09:54:18;;;;;;;14.98;11.45;;;;;;;0.43;62.53;99168.66;5027572;28;20392;-60
2024/01/17 09:56:46;;;;;;;15.95;12.18;;;;;;;0.41;62.42;99170.78;5001577;28;20030;-60
2024/01/17 09:59:16;;;;;;;19.65;11.68;;;;;;;0.42;62.41;99160.69;4990926;28;20065;-60
2024/01/17 10:01:43;;;;;;;18.95;12.02;;;;;;;0.42;62.21;99156.06;4989793;28;20031;-60
2024/01/17 10:04:11;;;;;;;18.77;11.88;;;;;;;0.42;61.54;99153.34;4995029;28;20489;-60
2024/01/17 10:06:39;;;;;;;18.85;11.88;;;;;;;0.42;62.08;99160.69;5029304;28;20369;-59
2024/01/17 10:09:06;;;;;;;16.05;12.13;;;;;;;0.44;61.91;99153.13;5029190;28;20474;-59
2024/01/17 10:11:31;;;;;;;18.35;12.27;;;;;;;0.44;62.06;99158.59;5029587;28;20029;-59
2024/01/17 10:13:57;;;;;;;16.33;12.20;;;;;;;0.49;61.87;99145.91;5025720;28;20041;-61
2024/01/17 10:16:25;;;;;;;17.63;12.05;;;;;;;0.49;61.77;99150.53;5029343;28;20029;-60
2024/01/17 10:18:51;;;;;;;17.83;12.75;;;;;;;0.49;61.88;99147.81;5028942;28;20022;-60
2024/01/17 10:21:16;;;;;;;20.17;14.15;;;;;;;0.48;62.02;99148.88;5018554;28;20038;-60
2024/01/17 10:23:42;;;;;;;19.85;14.07;;;;;;;0.47;62.00;99147.19;5025672;28;20045;-60
2024/01/17 10:26:08;;;;;;;22.65;14.57;;;;;;;0.48;61.77;99140.69;5015438;28;20454;-60
2024/01/17 10:28:33;;;;;;;15.48;12.55;;;;;;;0.49;62.32;99139.59;5029310;28;20151;-60
2024/01/17 10:31:02;;;;;;;18.70;12.98;;;;;;;0.51;61.86;99137.47;5029120;28;20035;-60
2024/01/17 10:33:27;;;;;;;23.15;13.88;;;;;;;0.52;62.27;99130.97;5029504;28;20166;-60
2024/01/17 10:35:52;;;;;;;21.60;13.85;;;;;;;0.55;62.09;99129.66;5023476;28;20602;-60
2024/01/17 10:38:18;;;;;;;20.80;15.02;;;;;;;0.56;62.62;99123.97;4998318;28;20038;-60
2024/01/17 10:40:44;;;;;;;20.33;14.13;;;;;;;0.56;62.41;99115.78;5009576;28;20100;-60
2024/01/17 10:43:10;;;;;;;19.83;14.60;;;;;;;0.58;63.00;99116.38;5009468;28;20074;-60
2024/01/17 10:45:37;;;;;;;23.83;16.05;;;;;;;0.57;62.70;99112.00;5006469;28;20022;-60
2024/01/17 10:48:03;;;;;;;20.33;16.23;;;;;;;0.59;62.00;99109.88;5013030;28;20366;-59
2024/01/17 10:50:29;;;;;;;21.08;14.65;;;;;;;0.61;62.26;99110.47;5006099;28;20037;-59
2024/01/17 10:53:05;;;;;;;21.63;14.65;;;;;;;0.63;62.00;99102.88;5007419;28;20044;-60
2024/01/17 10:55:35;;;;;;;19.73;14.32;;;;;;;0.64;61.67;99095.53;5009336;28;20026;-60
2024/01/17 10:58:07;;;;;;;22.30;15.70;;;;;;;0.61;61.37;99087.78;5008564;28;20392;-60
2024/01/17 11:00:35;;;;;;;22.50;16.77;;;;;;;0.64;61.89;99084.59;5027032;28;20063;-58
2024/01/17 11:03:08;;;;;;;21.15;15.45;;;;;;;0.62;62.16;99082.09;5011444;28;20026;-59
2024/01/17 11:05:37;;;;;;;;;;;;;;;0.78;62.58;99082.50;5007476;28;20040;-59
2024/01/17 11:08:04;;;;;;;21.63;15.10;;;;;;;0.70;61.54;99073.56;5008789;28;19929;-58
2024/01/17 11:10:30;;;;;;;21.02;16.13;;;;;;;0.70;62.11;99076.28;5007696;28;20033;-59
2024/01/17 11:12:56;;;;;;;23.25;15.75;;;;;;;0.72;62.33;99070.63;5003647;28;20469;-61
2024/01/17 11:15:24;;;;;;;18.58;14.82;;;;;;;0.72;61.57;99074.19;5008238;28;20048;-61
2024/01/17 11:17:53;;;;;;;19.42;15.32;;;;;;;0.72;61.26;99068.72;5007877;28;20030;-61
2024/01/17 11:20:19;;;;;;;17.95;13.23;;;;;;;0.70;60.03;99059.91;5007839;28;20026;-60